createdAt,value
2023-02-14T00:07:13.334Z,-1.16
2023-02-14T00:17:15.926Z,-1.15
2023-02-14T00:27:18.458Z,-1.07
2023-02-14T00:37:21.020Z,-1.06
2023-02-14T00:47:23.551Z,-1.14
2023-02-14T00:57:27.485Z,-1.21
2023-02-14T01:07:30.146Z,-1.09
2023-02-14T01:17:32.708Z,-0.91
2023-02-14T01:27:35.252Z,-0.90
2023-02-14T01:37:38.007Z,-1.01
2023-02-14T01:47:43.353Z,-1.12
2023-02-14T01:57:56.048Z,-1.36
2023-02-14T02:08:01.430Z,-1.42
2023-02-14T02:18:16.844Z,-1.40
2023-02-14T02:28:40.885Z,-1.26
2023-02-14T02:38:59.485Z,-0.97
2023-02-14T02:49:47.616Z,-0.74
2023-02-14T02:59:54.752Z,-0.81
2023-02-14T03:10:00.256Z,-1.23
2023-02-14T03:20:16.501Z,-1.42
2023-02-14T03:30:47.159Z,-1.59
2023-02-14T03:40:58.431Z,-1.61
2023-02-14T03:51:04.614Z,-1.66
2023-02-14T04:01:14.285Z,-1.60
2023-02-14T04:11:16.952Z,-1.67
2023-02-14T04:21:19.500Z,-1.72
2023-02-14T04:31:22.065Z,-1.79
2023-02-14T04:41:24.604Z,-1.74
2023-02-14T04:51:27.706Z,-1.85
2023-02-14T05:01:30.308Z,-1.92
2023-02-14T05:11:32.952Z,-1.90
2023-02-14T05:21:35.406Z,-2.13
2023-02-14T05:31:38.045Z,-2.13
2023-02-14T05:41:41.335Z,-2.09
2023-02-14T05:51:43.853Z,-2.05
2023-02-14T06:01:46.429Z,-2.04
2023-02-14T06:11:48.904Z,-1.88
2023-02-14T06:21:51.364Z,-1.67
2023-02-14T06:31:54.026Z,-1.42
2023-02-14T06:41:56.737Z,-1.15
2023-02-14T06:51:59.506Z,-0.79
2023-02-14T07:02:02.023Z,-0.41
2023-02-14T07:12:04.700Z,-0.17
2023-02-14T07:22:07.252Z,-0.04
2023-02-14T07:32:10.063Z,0.19
2023-02-14T07:42:12.859Z,0.46
2023-02-14T07:52:15.492Z,0.36
2023-02-14T08:02:18.065Z,0.53
2023-02-14T08:12:39.019Z,1.02
2023-02-14T08:22:41.808Z,1.48
2023-02-14T08:32:44.463Z,1.78
2023-02-14T08:42:47.149Z,2.16
2023-02-14T08:52:49.702Z,2.55
2023-02-14T09:02:53.331Z,2.94
2023-02-14T09:12:55.977Z,3.38
2023-02-14T09:22:58.641Z,3.56
2023-02-14T09:33:04.345Z,3.98
2023-02-14T09:43:15.984Z,4.57
2023-02-14T09:53:43.806Z,5.19
2023-02-14T10:04:10.953Z,5.42
2023-02-14T10:14:18.277Z,5.55
2023-02-14T10:24:30.248Z,5.49
2023-02-14T10:34:42.859Z,5.46
2023-02-14T10:45:14.913Z,5.51
2023-02-14T10:55:34.414Z,5.50
2023-02-14T11:05:46.695Z,5.55
2023-02-14T11:15:51.843Z,5.54
2023-02-14T11:25:55.872Z,5.54
2023-02-14T11:36:00.094Z,5.55
2023-02-14T11:46:14.469Z,5.77
2023-02-14T11:56:20.221Z,6.17
2023-02-14T12:06:29.219Z,6.20
2023-02-14T12:16:40.271Z,6.51
2023-02-14T12:27:40.748Z,6.57
2023-02-14T12:38:04.955Z,6.65
2023-02-14T12:48:26.117Z,6.54
2023-02-14T12:58:49.683Z,6.85
2023-02-14T13:09:13.586Z,6.77
2023-02-14T13:19:34.591Z,6.92
2023-02-14T13:29:47.202Z,6.94
2023-02-14T13:39:57.341Z,7.32
2023-02-14T13:50:02.066Z,8.26
2023-02-14T14:00:19.980Z,8.37
2023-02-14T14:10:44.769Z,7.70
2023-02-14T14:20:51.908Z,7.75
2023-02-14T14:30:55.006Z,7.75
2023-02-14T14:40:58.073Z,7.51
2023-02-14T14:51:07.023Z,6.95
2023-02-14T15:01:28.196Z,6.39
2023-02-14T15:11:58.507Z,5.96
2023-02-14T15:22:03.543Z,5.62
2023-02-14T15:32:09.021Z,5.28
2023-02-14T15:42:27.674Z,4.91
2023-02-14T15:52:30.382Z,4.60
2023-02-14T16:02:38.917Z,4.24
2023-02-14T16:12:42.390Z,3.81
2023-02-14T16:22:45.154Z,3.61
2023-02-14T16:32:50.796Z,3.30
2023-02-14T16:42:53.913Z,2.91
2023-02-14T16:52:57.997Z,2.80
2023-02-14T17:03:06.928Z,2.69
2023-02-14T17:13:11.076Z,2.45
2023-02-14T17:23:13.775Z,2.41
2023-02-14T17:33:16.434Z,2.04
2023-02-14T17:43:19.268Z,1.74
2023-02-14T17:53:21.760Z,1.54
2023-02-14T18:03:24.556Z,1.48
2023-02-14T18:13:27.421Z,1.32
2023-02-14T18:23:31.253Z,1.16
2023-02-14T18:33:35.184Z,0.94
2023-02-14T18:43:41.006Z,1.09
2023-02-14T18:53:45.099Z,1.30
2023-02-14T19:03:49.801Z,1.18
2023-02-14T19:13:56.182Z,1.04
2023-02-14T19:23:59.148Z,0.91
2023-02-14T19:34:02.238Z,0.90
2023-02-14T19:44:06.743Z,1.17
2023-02-14T19:54:10.249Z,1.09
2023-02-14T20:04:16.214Z,1.26
2023-02-14T20:14:21.362Z,1.33
2023-02-14T20:24:26.984Z,1.41
2023-02-14T20:34:29.765Z,1.52
2023-02-14T20:44:34.741Z,1.62
2023-02-14T20:54:38.930Z,1.67
2023-02-14T21:04:41.785Z,1.66
2023-02-14T21:14:44.519Z,1.68
2023-02-14T21:24:50.044Z,1.69
2023-02-14T21:34:52.855Z,1.60
2023-02-14T21:45:14.188Z,1.56
2023-02-14T21:55:17.016Z,1.61
2023-02-14T22:05:19.730Z,1.67
2023-02-14T22:15:22.160Z,1.70
2023-02-14T22:25:25.736Z,1.63
2023-02-14T22:35:28.332Z,1.51
2023-02-14T22:45:30.736Z,1.32
2023-02-14T22:55:33.414Z,1.42
2023-02-14T23:05:36.000Z,1.37
2023-02-14T23:15:56.778Z,1.12
2023-02-14T23:26:00.797Z,1.13
2023-02-14T23:36:04.324Z,0.97
2023-02-14T23:46:06.816Z,0.70
2023-02-14T23:56:09.405Z,0.78
